Time;durP1;ratioP1;P1;durP2;ratioP2;P2;SDS_P1;SDS_P2;PMS_P1;PMS_P2;Temp;Humidity;BMP_temperature;BMP_pressure;BME280_temperature;BME280_humidity;BME280_pressure;Samples;Min_cycle;Max_cycle;Signal;HPM_P1;HPM_P2
2021/10/10 00:00:46;;;;;;;22.23;9.15;;;12.20;99.90;;;;;;4955863;29;20051;-74
2021/10/10 00:03:12;;;;;;;17.23;8.13;;;12.10;99.90;;;;;;4939505;29;20049;-73
2021/10/10 00:05:38;;;;;;;21.95;9.18;;;12.10;99.90;;;;;;4939508;29;20094;-71
2021/10/10 00:08:03;;;;;;;26.83;9.55;;;12.10;99.90;;;;;;4956764;29;20445;-71
2021/10/10 00:10:31;;;;;;;25.13;9.30;;;12.10;99.90;;;;;;4956329;29;20039;-73
2021/10/10 00:12:57;;;;;;;22.88;9.20;;;12.10;99.90;;;;;;4954826;29;20098;-73
2021/10/10 00:15:23;;;;;;;24.83;9.35;;;12.20;99.90;;;;;;4957219;29;20035;-78
2021/10/10 00:17:49;;;;;;;26.67;9.45;;;12.20;99.90;;;;;;4957250;29;20110;-73
2021/10/10 00:20:16;;;;;;;18.50;7.90;;;12.20;99.90;;;;;;4939889;29;20035;-73
2021/10/10 00:22:41;;;;;;;22.08;9.15;;;12.20;99.90;;;;;;4956961;29;20109;-74
2021/10/10 00:25:08;;;;;;;23.65;9.35;;;12.20;99.90;;;;;;4957130;29;20468;-73
2021/10/10 00:27:35;;;;;;;21.30;9.27;;;12.20;99.90;;;;;;4956876;29;20508;-73
2021/10/10 00:30:02;;;;;;;26.67;9.60;;;12.20;99.90;;;;;;4939796;29;21240;-73
2021/10/10 00:32:28;;;;;;;30.90;10.75;;;12.20;99.90;;;;;;4956822;29;20050;-79
2021/10/10 00:34:54;;;;;;;24.92;9.10;;;12.20;99.90;;;;;;4956013;29;20050;-72
2021/10/10 00:37:20;;;;;;;40.85;10.00;;;12.30;99.90;;;;;;4956622;29;20050;-73
2021/10/10 00:39:45;;;;;;;32.20;9.90;;;12.30;99.90;;;;;;4956389;29;20034;-73
2021/10/10 00:42:11;;;;;;;41.40;11.30;;;12.30;99.90;;;;;;4956566;29;20027;-74
2021/10/10 00:44:37;;;;;;;29.90;9.93;;;12.30;99.90;;;;;;4956450;29;20126;-73
2021/10/10 00:47:03;;;;;;;22.92;8.98;;;12.30;99.90;;;;;;4955738;29;20046;-73
2021/10/10 00:49:29;;;;;;;24.88;8.60;;;12.30;99.90;;;;;;4955643;29;20059;-75
2021/10/10 00:51:58;;;;;;;35.10;11.05;;;12.30;99.90;;;;;;4956600;29;20071;-73
2021/10/10 00:54:25;;;;;;;21.17;10.00;;;12.30;99.90;;;;;;4956735;29;20038;-73
2021/10/10 00:56:54;;;;;;;29.40;9.35;;;12.30;99.90;;;;;;4956492;29;20420;-74
2021/10/10 00:59:22;;;;;;;25.58;9.02;;;12.30;99.90;;;;;;4938381;29;20522;-73
2021/10/10 01:01:52;;;;;;;29.77;9.68;;;12.30;99.90;;;;;;4955367;29;20490;-75
2021/10/10 01:04:18;;;;;;;27.35;9.57;;;12.40;99.90;;;;;;4956135;29;20089;-73
2021/10/10 01:06:44;;;;;;;16.33;8.85;;;12.30;99.90;;;;;;4955612;28;20036;-75
2021/10/10 01:09:13;;;;;;;35.53;9.38;;;12.30;99.90;;;;;;4956470;29;20035;-74
2021/10/10 01:11:40;;;;;;;20.25;9.15;;;12.30;99.90;;;;;;4956449;29;20138;-74
2021/10/10 01:14:06;;;;;;;21.23;9.77;;;12.40;99.90;;;;;;4956487;29;20109;-74
2021/10/10 01:16:32;;;;;;;18.30;9.25;;;12.40;99.90;;;;;;4956165;29;20023;-72
2021/10/10 01:18:59;;;;;;;22.48;10.02;;;12.40;99.90;;;;;;4955380;29;20039;-72
2021/10/10 01:21:25;;;;;;;29.38;9.70;;;12.40;99.90;;;;;;4955615;29;20408;-73
2021/10/10 01:23:51;;;;;;;31.85;10.90;;;12.40;99.90;;;;;;4956155;29;20074;-79
2021/10/10 01:26:21;;;;;;;26.75;9.40;;;12.40;99.90;;;;;;4955992;29;20391;-73
2021/10/10 01:28:48;;;;;;;27.85;9.95;;;12.40;99.90;;;;;;4938965;29;20133;-73
2021/10/10 01:31:14;;;;;;;28.02;10.55;;;12.40;99.90;;;;;;4955741;29;20031;-74
2021/10/10 01:33:44;;;;;;;26.35;9.93;;;12.40;99.90;;;;;;4956152;29;20098;-73
2021/10/10 01:36:12;;;;;;;23.75;9.20;;;12.40;99.90;;;;;;4956115;29;20429;-73
2021/10/10 01:38:38;;;;;;;29.20;9.70;;;12.50;99.90;;;;;;4955548;29;20053;-73
2021/10/10 01:41:04;;;;;;;23.67;9.75;;;12.40;99.90;;;;;;4955385;29;20043;-74
2021/10/10 01:43:30;;;;;;;28.45;9.48;;;12.50;99.90;;;;;;4955017;29;20027;-72
2021/10/10 01:45:56;;;;;;;38.17;9.30;;;12.50;99.90;;;;;;4955039;29;20039;-72
2021/10/10 01:48:21;;;;;;;34.33;11.32;;;12.50;99.90;;;;;;4954951;29;20473;-72
2021/10/10 01:50:47;;;;;;;23.52;8.70;;;12.50;99.90;;;;;;4954907;29;20479;-75
2021/10/10 01:53:13;;;;;;;22.42;8.93;;;12.50;99.90;;;;;;4954452;29;20055;-74
2021/10/10 01:55:38;;;;;;;19.08;10.10;;;12.50;99.90;;;;;;4954313;29;20037;-74
2021/10/10 01:58:04;;;;;;;23.30;9.15;;;12.50;99.90;;;;;;4954407;29;20567;-74
2021/10/10 02:00:30;;;;;;;27.33;9.68;;;12.60;99.90;;;;;;4953701;29;20396;-74
2021/10/10 02:02:56;;;;;;;28.30;10.00;;;12.60;99.90;;;;;;4954309;29;20031;-73
2021/10/10 02:05:21;;;;;;;26.77;9.20;;;12.60;99.90;;;;;;4954680;29;20031;-71
2021/10/10 02:07:48;;;;;;;23.33;9.60;;;12.60;99.90;;;;;;4954239;29;20468;-74
2021/10/10 02:10:14;;;;;;;27.90;9.93;;;12.60;99.90;;;;;;4953897;29;20058;-72
2021/10/10 02:12:40;;;;;;;23.30;9.77;;;12.50;99.90;;;;;;4954199;29;20047;-73
2021/10/10 02:15:07;;;;;;;29.90;9.40;;;12.50;99.90;;;;;;4954514;29;20121;-74
2021/10/10 02:17:33;;;;;;;28.50;8.77;;;12.60;99.90;;;;;;4954108;28;20035;-75
2021/10/10 02:19:59;;;;;;;21.67;9.07;;;12.60;99.90;;;;;;4953754;29;20027;-72
2021/10/10 02:22:25;;;;;;;21.63;9.35;;;12.50;99.90;;;;;;4954270;29;20047;-73
2021/10/10 02:24:51;;;;;;;21.45;9.63;;;12.50;99.90;;;;;;4953763;29;20036;-73
2021/10/10 02:27:17;;;;;;;21.50;8.30;;;12.60;99.90;;;;;;4954022;29;20034;-73
2021/10/10 02:29:42;;;;;;;15.43;8.55;;;12.50;99.90;;;;;;4953280;29;20027;-73
2021/10/10 02:32:08;;;;;;;27.90;9.25;;;12.50;99.90;;;;;;4951223;28;20364;-74
2021/10/10 02:34:34;;;;;;;24.17;8.63;;;12.50;99.90;;;;;;4936892;29;20027;-72
2021/10/10 02:36:59;;;;;;;21.05;9.50;;;12.50;99.90;;;;;;4953578;29;20665;-72
2021/10/10 02:39:25;;;;;;;27.02;10.20;;;12.50;99.90;;;;;;4953327;29;20031;-73
2021/10/10 02:41:51;;;;;;;27.52;8.73;;;12.50;99.90;;;;;;4952938;29;20441;-73
2021/10/10 02:44:17;;;;;;;14.07;8.63;;;12.50;99.90;;;;;;4953609;29;20146;-72
2021/10/10 02:46:42;;;;;;;26.95;9.07;;;12.50;99.90;;;;;;4953540;29;20065;-75
2021/10/10 02:49:08;;;;;;;23.80;8.80;;;12.50;99.90;;;;;;4953319;29;20027;-72
2021/10/10 02:51:34;;;;;;;27.42;8.98;;;12.50;99.90;;;;;;4953709;29;20031;-75
2021/10/10 02:53:59;;;;;;;28.98;9.05;;;12.50;99.90;;;;;;4953230;29;20046;-74
2021/10/10 02:56:25;;;;;;;22.00;8.93;;;12.50;99.90;;;;;;4953336;29;20098;-72
2021/10/10 02:58:51;;;;;;;21.05;9.32;;;12.50;99.90;;;;;;4953433;29;20085;-72
2021/10/10 03:01:17;;;;;;;29.60;9.05;;;12.50;99.90;;;;;;4953004;29;20134;-73
2021/10/10 03:03:43;;;;;;;26.50;8.43;;;12.50;99.90;;;;;;4953048;29;20035;-73
2021/10/10 03:06:09;;;;;;;25.95;9.23;;;12.50;99.90;;;;;;4935468;29;20389;-74
2021/10/10 03:08:36;;;;;;;20.08;8.65;;;12.50;99.90;;;;;;4953551;29;20543;-73
2021/10/10 03:11:05;;;;;;;26.15;8.57;;;12.50;99.90;;;;;;4952953;28;20543;-73
2021/10/10 03:13:31;;;;;;;18.92;9.40;;;12.50;99.90;;;;;;4953002;29;20591;-75
2021/10/10 03:15:57;;;;;;;26.85;10.50;;;12.40;99.90;;;;;;4952678;29;20102;-74
2021/10/10 03:18:24;;;;;;;19.23;9.20;;;12.40;99.90;;;;;;4953778;29;20134;-71
2021/10/10 03:20:50;;;;;;;21.00;9.43;;;12.40;99.90;;;;;;4952369;29;20023;-72
2021/10/10 03:23:16;;;;;;;24.63;9.95;;;12.40;99.90;;;;;;4953035;29;20477;-73
2021/10/10 03:25:41;;;;;;;26.50;9.30;;;12.40;99.90;;;;;;4953182;29;20031;-73
2021/10/10 03:28:07;;;;;;;23.35;9.75;;;12.40;99.90;;;;;;4953461;29;20028;-73
2021/10/10 03:30:33;;;;;;;35.80;8.88;;;12.40;99.90;;;;;;4943536;29;20031;-74
2021/10/10 03:32:58;;;;;;;21.10;8.95;;;12.40;99.90;;;;;;4959349;28;20105;-72
2021/10/10 03:35:24;;;;;;;28.17;10.27;;;12.30;99.90;;;;;;4958720;29;20107;-72
2021/10/10 03:37:50;;;;;;;20.90;8.98;;;12.30;99.90;;;;;;4959481;29;20038;-77
2021/10/10 03:40:16;;;;;;;21.65;9.60;;;12.30;99.90;;;;;;4959356;28;20043;-75
2021/10/10 03:42:42;;;;;;;15.75;8.85;;;12.20;99.90;;;;;;4959521;29;20378;-72
2021/10/10 03:45:09;;;;;;;26.02;8.95;;;12.20;99.90;;;;;;4942379;29;20046;-72
2021/10/10 03:47:35;;;;;;;32.67;10.13;;;12.20;99.90;;;;;;4942046;28;20031;-73
2021/10/10 03:50:01;;;;;;;21.50;8.85;;;12.20;99.90;;;;;;4959172;28;20031;-73
2021/10/10 03:52:26;;;;;;;22.50;9.98;;;12.10;99.90;;;;;;4959343;29;20114;-74
2021/10/10 03:57:36;;;;;;;26.00;11.07;;;12.10;99.90;;;;;;4959172;29;20054;-73
2021/10/10 04:00:07;;;;;;;24.88;10.48;;;12.00;99.90;;;;;;4959480;29;20445;-74
2021/10/10 04:02:33;;;;;;;20.15;9.93;;;12.00;99.90;;;;;;4959122;29;20043;-72
2021/10/10 04:05:00;;;;;;;29.40;10.88;;;11.90;99.90;;;;;;4959454;29;20484;-74
2021/10/10 04:07:26;;;;;;;21.92;10.23;;;11.80;99.90;;;;;;4959192;29;20543;-71
2021/10/10 04:09:52;;;;;;;26.08;10.00;;;11.90;99.90;;;;;;4959190;28;20035;-73
2021/10/10 04:12:18;;;;;;;22.67;10.38;;;11.80;99.90;;;;;;4959233;28;20523;-73
2021/10/10 04:14:43;;;;;;;27.48;10.55;;;11.80;99.90;;;;;;4958881;29;20535;-72
2021/10/10 04:17:10;;;;;;;22.58;10.30;;;11.70;99.90;;;;;;4958765;28;20126;-73
2021/10/10 04:19:36;;;;;;;25.13;10.30;;;11.70;99.90;;;;;;4959024;28;20498;-74
2021/10/10 04:22:01;;;;;;;21.75;10.30;;;11.70;99.90;;;;;;4941817;29;20035;-73
2021/10/10 04:24:27;;;;;;;23.15;10.32;;;11.70;99.90;;;;;;4958851;29;20054;-73
2021/10/10 04:26:53;;;;;;;26.17;11.27;;;11.70;99.90;;;;;;4958895;29;20119;-73
2021/10/10 04:29:19;;;;;;;30.65;10.52;;;11.70;99.90;;;;;;4958238;28;20035;-77
2021/10/10 04:31:45;;;;;;;25.02;10.60;;;11.70;99.90;;;;;;4958417;29;20023;-74
2021/10/10 04:34:11;;;;;;;27.45;10.27;;;11.70;99.90;;;;;;4958819;29;20049;-73
2021/10/10 04:36:38;;;;;;;18.58;9.88;;;11.70;99.90;;;;;;4958435;29;20499;-76
2021/10/10 04:39:04;;;;;;;19.50;10.32;;;11.60;99.90;;;;;;4941130;29;20411;-72
2021/10/10 04:41:29;;;;;;;31.58;10.93;;;11.60;99.90;;;;;;4956336;28;20107;-73
2021/10/10 04:43:55;;;;;;;27.92;10.10;;;11.60;99.90;;;;;;4938898;29;20039;-74
2021/10/10 04:46:21;;;;;;;28.30;12.30;;;11.60;99.90;;;;;;4955947;29;20035;-72
2021/10/10 04:48:47;;;;;;;22.70;9.45;;;11.50;99.90;;;;;;4939172;29;20019;-73
2021/10/10 04:51:12;;;;;;;19.98;9.80;;;11.50;99.90;;;;;;4955626;29;20028;-74
2021/10/10 04:53:38;;;;;;;26.52;10.40;;;11.40;99.90;;;;;;4955935;29;20392;-73
2021/10/10 04:56:04;;;;;;;23.63;9.65;;;11.40;99.90;;;;;;4955986;29;20031;-74
2021/10/10 04:58:30;;;;;;;37.30;12.32;;;11.40;99.90;;;;;;4955852;29;20550;-76
2021/10/10 05:00:57;;;;;;;27.35;9.52;;;11.40;99.90;;;;;;4938395;29;20039;-72
2021/10/10 05:03:25;;;;;;;24.67;9.65;;;11.40;99.90;;;;;;4938469;29;20126;-73
2021/10/10 05:05:51;;;;;;;27.75;10.55;;;11.40;99.90;;;;;;4955113;29;20031;-76
2021/10/10 05:08:17;;;;;;;21.52;10.02;;;11.40;99.90;;;;;;4955105;29;20502;-73
2021/10/10 05:10:43;;;;;;;23.42;9.82;;;11.40;99.90;;;;;;4954701;29;20034;-71
2021/10/10 05:13:10;;;;;;;30.63;9.95;;;11.40;99.90;;;;;;4955241;29;20605;-73
2021/10/10 05:15:36;;;;;;;23.50;9.98;;;11.40;99.90;;;;;;4955423;29;20039;-73
2021/10/10 05:18:02;;;;;;;25.33;10.52;;;11.40;99.90;;;;;;4954976;29;20031;-73
2021/10/10 05:20:28;;;;;;;29.15;10.65;;;11.40;99.90;;;;;;4955097;29;20038;-73
2021/10/10 05:22:54;;;;;;;21.15;10.35;;;11.40;99.90;;;;;;4955181;29;20035;-73
2021/10/10 05:25:20;;;;;;;23.70;10.23;;;11.40;99.90;;;;;;4955274;29;20216;-73
2021/10/10 05:27:45;;;;;;;18.90;9.95;;;11.40;99.90;;;;;;4955251;28;20039;-72
2021/10/10 05:30:11;;;;;;;29.25;9.80;;;11.40;99.90;;;;;;4954749;29;20033;-72
2021/10/10 05:32:37;;;;;;;24.15;10.57;;;11.40;99.90;;;;;;4955230;29;20043;-74
2021/10/10 05:35:03;;;;;;;23.27;10.52;;;11.40;99.90;;;;;;4937884;29;20039;-72
2021/10/10 05:37:28;;;;;;;20.20;9.80;;;11.40;99.90;;;;;;4955155;29;20441;-73
2021/10/10 05:39:54;;;;;;;30.55;9.93;;;11.40;99.90;;;;;;4954555;29;20045;-73
2021/10/10 05:42:20;;;;;;;26.65;10.80;;;11.40;99.90;;;;;;4955112;29;20046;-75
2021/10/10 05:44:45;;;;;;;30.38;10.63;;;11.40;99.90;;;;;;4954825;29;20469;-75
2021/10/10 05:47:11;;;;;;;16.38;9.43;;;11.40;99.90;;;;;;4955058;29;20442;-73
2021/10/10 05:49:37;;;;;;;28.55;10.13;;;11.50;99.90;;;;;;4954871;29;20090;-77
2021/10/10 05:52:05;;;;;;;22.60;9.75;;;11.50;99.90;;;;;;4954597;29;20028;-73
2021/10/10 05:54:33;;;;;;;19.98;9.63;;;11.60;99.90;;;;;;4953482;29;20098;-74
2021/10/10 05:57:01;;;;;;;18.80;9.50;;;11.70;99.90;;;;;;4954012;29;20043;-73
2021/10/10 05:59:31;;;;;;;23.40;9.90;;;11.90;99.90;;;;;;4954838;29;20055;-74
2021/10/10 06:01:57;;;;;;;23.40;9.27;;;12.00;99.90;;;;;;4954181;29;20031;-73
2021/10/10 06:04:23;;;;;;;21.67;9.73;;;12.10;99.90;;;;;;4954485;29;20054;-73
2021/10/10 06:06:48;;;;;;;25.90;9.48;;;12.40;99.90;;;;;;4954453;29;20031;-73
2021/10/10 06:09:14;;;;;;;22.95;9.15;;;13.20;99.90;;;;;;4937228;29;20518;-75
2021/10/10 06:11:40;;;;;;;22.13;9.38;;;13.90;99.90;;;;;;4953998;29;20388;-74
2021/10/10 06:14:06;;;;;;;27.45;8.10;;;14.60;99.90;;;;;;4954043;29;20039;-73
2021/10/10 06:16:32;;;;;;;18.98;8.20;;;15.30;99.50;;;;;;4954518;29;20090;-75
2021/10/10 06:19:00;;;;;;;22.35;7.53;;;15.80;99.00;;;;;;4954975;29;20045;-73
2021/10/10 06:21:26;;;;;;;12.55;8.15;;;16.50;98.10;;;;;;4937555;29;20407;-73
2021/10/10 06:23:53;;;;;;;19.23;7.63;;;16.90;97.90;;;;;;4954763;29;20035;-73
2021/10/10 06:26:19;;;;;;;15.05;7.05;;;17.40;96.90;;;;;;4954675;29;20102;-73
2021/10/10 06:28:45;;;;;;;18.23;7.40;;;17.90;96.60;;;;;;4955050;29;20043;-73
2021/10/10 06:31:11;;;;;;;16.08;7.68;;;18.50;95.80;;;;;;4954652;29;20087;-75
2021/10/10 06:33:36;;;;;;;18.80;7.20;;;19.00;95.20;;;;;;4953945;29;20152;-76
2021/10/10 06:36:02;;;;;;;22.33;7.35;;;19.20;94.80;;;;;;4954753;29;20054;-76
2021/10/10 06:38:28;;;;;;;18.92;7.57;;;19.50;94.20;;;;;;4954679;29;20027;-74
2021/10/10 06:40:53;;;;;;;14.52;6.93;;;19.90;93.80;;;;;;4953952;29;20102;-74
2021/10/10 06:43:19;;;;;;;23.52;7.88;;;19.90;93.20;;;;;;4954285;29;20098;-73
2021/10/10 06:45:45;;;;;;;15.60;7.65;;;19.40;93.60;;;;;;4954573;29;20035;-74
2021/10/10 06:48:11;;;;;;;14.27;6.40;;;19.30;93.50;;;;;;4953932;29;20031;-75
2021/10/10 06:50:36;;;;;;;17.98;7.57;;;19.20;93.60;;;;;;4936953;29;20042;-74
2021/10/10 06:53:02;;;;;;;22.17;6.82;;;19.00;93.50;;;;;;4937079;29;20554;-74
2021/10/10 06:55:28;;;;;;;17.05;6.88;;;18.90;93.60;;;;;;4953847;29;20023;-75
2021/10/10 06:57:53;;;;;;;12.63;6.93;;;18.70;93.50;;;;;;4953518;29;20051;-75
2021/10/10 07:00:19;;;;;;;18.85;7.05;;;17.90;94.20;;;;;;4953655;29;20059;-73
2021/10/10 07:02:45;;;;;;;21.38;7.65;;;17.10;94.90;;;;;;4954034;29;20047;-73
2021/10/10 07:05:13;;;;;;;15.30;6.40;;;17.00;95.50;;;;;;4953574;28;20037;-74
2021/10/10 07:07:39;;;;;;;15.32;6.63;;;17.60;94.80;;;;;;4936644;29;20039;-73
2021/10/10 07:10:07;;;;;;;17.63;6.88;;;18.30;94.50;;;;;;4953719;28;20107;-72
2021/10/10 07:12:33;;;;;;;20.23;6.63;;;18.80;93.20;;;;;;4953741;29;20038;-73
2021/10/10 07:14:59;;;;;;;18.00;6.10;;;18.90;93.40;;;;;;4936914;29;20035;-73
2021/10/10 07:17:27;;;;;;;15.77;6.00;;;19.50;92.80;;;;;;4953787;29;20059;-74
2021/10/10 07:20:19;;;;;;;14.82;5.88;;;19.90;91.90;;;;;;4954282;29;20027;-74
2021/10/10 07:25:05;;;;;;;21.27;6.68;;;19.60;91.80;;;;;;4953588;29;20047;-73
2021/10/10 07:27:36;;;;;;;24.90;6.88;;;19.60;92.00;;;;;;4953446;29;20043;-74
2021/10/10 07:30:04;;;;;;;16.17;6.13;;;19.80;92.00;;;;;;4952873;29;20061;-74
2021/10/10 07:32:31;;;;;;;15.18;5.60;;;20.60;91.30;;;;;;4953913;29;20050;-74
2021/10/10 07:34:57;;;;;;;21.45;6.03;;;20.70;90.90;;;;;;4953920;29;20389;-73
2021/10/10 07:37:23;;;;;;;24.27;7.32;;;20.50;91.10;;;;;;4935585;29;20046;-73
2021/10/10 07:39:49;;;;;;;14.93;6.30;;;19.10;91.80;;;;;;4952605;29;20380;-73
2021/10/10 07:42:14;;;;;;;15.27;6.03;;;18.50;92.60;;;;;;4953190;29;20107;-72
2021/10/10 07:44:45;;;;;;;25.05;6.07;;;18.80;92.50;;;;;;4952808;29;20400;-75
2021/10/10 07:47:43;;;;;;;16.92;6.60;;;19.50;92.20;;;;;;4952929;29;20484;-76
2021/10/10 07:50:00;;;;;;;18.40;6.25;;;20.50;91.30;;;;;;4951335;29;20051;-73
2021/10/10 07:52:26;;;;;;;18.65;6.72;;;20.20;91.20;;;;;;4952813;29;20069;-74
2021/10/10 07:54:52;;;;;;;24.38;7.38;;;19.50;91.70;;;;;;4952848;29;20035;-73
2021/10/10 07:57:18;;;;;;;18.67;7.60;;;19.10;92.10;;;;;;4952489;29;20028;-73
2021/10/10 07:59:43;;;;;;;13.23;6.32;;;18.70;92.50;;;;;;4952917;29;20118;-73
2021/10/10 08:02:09;;;;;;;14.95;7.15;;;17.40;93.70;;;;;;4951879;29;20039;-72
2021/10/10 08:04:35;;;;;;;19.45;7.10;;;16.50;94.90;;;;;;4952148;29;20055;-72
2021/10/10 08:07:00;;;;;;;36.72;7.47;;;15.50;96.10;;;;;;4951198;29;20046;-71
2021/10/10 08:09:26;;;;;;;23.38;7.65;;;14.90;96.90;;;;;;4952104;28;20489;-72
2021/10/10 08:11:52;;;;;;;18.15;7.50;;;14.50;97.50;;;;;;4951812;29;20035;-74
2021/10/10 08:14:18;;;;;;;14.52;7.35;;;14.30;98.10;;;;;;4953336;28;20035;-72
2021/10/10 08:16:44;;;;;;;22.30;7.53;;;14.10;98.10;;;;;;4953882;28;20027;-73
2021/10/10 08:19:10;;;;;;;23.08;8.43;;;13.90;98.80;;;;;;4954877;29;20039;-71
2021/10/10 08:21:36;;;;;;;23.58;6.95;;;13.90;99.20;;;;;;4955807;29;20035;-71
2021/10/10 08:24:03;;;;;;;14.82;7.38;;;13.80;99.30;;;;;;4954112;29;20039;-72
2021/10/10 08:26:33;;;;;;;16.33;7.18;;;13.70;99.70;;;;;;4955158;29;20099;-76
2021/10/10 08:28:59;;;;;;;23.73;7.13;;;13.70;99.80;;;;;;4955873;29;20106;-70
2021/10/10 08:31:26;;;;;;;16.05;7.03;;;13.90;99.90;;;;;;4955392;29;20047;-73
2021/10/10 08:33:52;;;;;;;14.93;7.05;;;13.90;99.90;;;;;;4955336;29;20051;-70
2021/10/10 08:36:18;;;;;;;17.08;7.43;;;14.00;99.90;;;;;;4954555;29;20035;-69
2021/10/10 08:38:44;;;;;;;16.23;7.05;;;14.20;99.90;;;;;;4955698;29;20476;-72
2021/10/10 08:41:14;;;;;;;22.77;7.10;;;14.50;99.40;;;;;;4955907;29;20039;-72
2021/10/10 08:43:42;;;;;;;24.73;6.35;;;14.60;99.50;;;;;;4954081;29;20043;-72
2021/10/10 08:46:09;;;;;;;13.55;6.95;;;15.00;99.40;;;;;;4955145;29;20039;-71
2021/10/10 08:48:34;;;;;;;22.55;7.57;;;15.30;98.60;;;;;;4955245;29;20399;-71
2021/10/10 08:51:00;;;;;;;13.50;6.45;;;15.40;98.00;;;;;;4955528;29;20032;-71
2021/10/10 08:53:26;;;;;;;11.05;5.85;;;15.10;98.40;;;;;;4955587;29;20090;-72
2021/10/10 08:55:52;;;;;;;23.77;8.07;;;15.00;98.90;;;;;;4954875;29;20525;-71
2021/10/10 08:58:21;;;;;;;14.40;6.32;;;15.30;98.80;;;;;;4955136;29;20127;-80
2021/10/10 09:01:02;;;;;;;13.50;6.15;;;15.50;98.20;;;;;;4953230;29;20045;-72
2021/10/10 09:03:27;;;;;;;12.40;6.13;;;15.60;98.20;;;;;;4936450;29;20110;-71
2021/10/10 09:05:54;;;;;;;17.38;6.57;;;15.60;98.30;;;;;;4954034;29;20110;-74
2021/10/10 09:08:21;;;;;;;11.93;5.18;;;16.00;97.90;;;;;;4954657;29;20023;-74
2021/10/10 09:10:58;;;;;;;16.83;6.47;;;16.20;97.70;;;;;;4937359;29;20469;-73
2021/10/10 09:13:32;;;;;;;12.32;5.15;;;16.00;98.00;;;;;;4953921;29;20036;-73
2021/10/10 09:15:58;;;;;;;12.48;5.20;;;16.00;97.50;;;;;;4954791;29;20028;-75
2021/10/10 09:18:41;;;;;;;8.77;4.93;;;16.10;97.60;;;;;;4954756;29;20027;-73
2021/10/10 09:21:22;;;;;;;11.30;5.13;;;16.50;97.20;;;;;;4953984;29;20039;-72
2021/10/10 09:23:54;;;;;;;8.90;4.70;;;16.20;97.50;;;;;;4954392;29;20062;-75
2021/10/10 09:26:21;;;;;;;11.73;4.72;;;15.90;97.90;;;;;;4954487;29;20042;-78
2021/10/10 09:28:48;;;;;;;16.98;5.30;;;16.10;97.70;;;;;;4954500;28;20039;-73
2021/10/10 09:31:14;;;;;;;12.57;4.88;;;15.70;97.80;;;;;;4955025;28;20086;-72
2021/10/10 09:33:52;;;;;;;12.57;5.32;;;15.50;98.30;;;;;;4954439;29;20134;-73
2021/10/10 09:36:29;;;;;;;12.23;4.38;;;15.40;98.50;;;;;;4954824;29;20035;-71
2021/10/10 09:39:13;;;;;;;11.15;4.80;;;14.90;99.20;;;;;;4938329;29;20460;-72
2021/10/10 09:41:51;;;;;;;7.88;4.47;;;15.40;98.90;;;;;;4952664;29;20136;-73
2021/10/10 09:46:45;;;;;;;10.15;4.22;;;16.00;98.40;;;;;;4954304;29;20035;-73
2021/10/10 09:49:26;;;;;;;9.93;3.97;;;16.20;98.00;;;;;;4955687;29;20384;-73
2021/10/10 09:52:08;;;;;;;8.02;3.88;;;16.20;98.30;;;;;;4954811;29;20035;-75
2021/10/10 09:54:56;;;;;;;12.98;4.60;;;16.40;97.90;;;;;;4954033;29;20043;-72
2021/10/10 09:57:25;;;;;;;8.52;3.50;;;16.10;98.10;;;;;;4953733;29;21170;-72
2021/10/10 09:59:53;;;;;;;6.60;3.85;;;16.20;98.10;;;;;;4936569;29;20416;-72
2021/10/10 10:02:36;;;;;;;8.18;4.80;;;15.80;98.50;;;;;;4954265;29;20493;-72
2021/10/10 10:05:02;;;;;;;10.75;3.97;;;15.50;98.90;;;;;;4955326;29;20053;-73
2021/10/10 10:07:29;;;;;;;8.70;3.78;;;15.70;99.30;;;;;;4955069;29;20019;-72
2021/10/10 10:09:54;;;;;;;7.20;4.30;;;15.90;99.10;;;;;;4955269;29;20073;-73
2021/10/10 10:12:22;;;;;;;11.32;3.88;;;16.20;99.00;;;;;;4955095;29;20058;-72
2021/10/10 10:14:53;;;;;;;4.15;3.15;;;16.70;98.70;;;;;;4955740;29;20067;-72
2021/10/10 10:17:23;;;;;;;6.05;3.28;;;16.70;98.10;;;;;;4955053;29;20043;-72
2021/10/10 10:19:48;;;;;;;7.70;3.03;;;16.50;98.00;;;;;;4955248;29;20061;-73
2021/10/10 10:22:17;;;;;;;7.22;3.17;;;16.40;98.10;;;;;;4954783;29;20480;-72
2021/10/10 10:24:47;;;;;;;6.15;3.00;;;16.40;98.30;;;;;;4955048;29;20019;-73
2021/10/10 10:27:15;;;;;;;11.25;3.10;;;16.40;98.20;;;;;;4954712;29;20516;-72
2021/10/10 10:29:43;;;;;;;6.05;3.33;;;16.40;98.50;;;;;;4954299;29;20480;-72
2021/10/10 10:32:12;;;;;;;6.18;2.90;;;16.60;98.10;;;;;;4954462;29;20031;-75
2021/10/10 10:34:38;;;;;;;4.20;2.97;;;16.50;97.80;;;;;;4954837;29;20151;-72
2021/10/10 10:37:11;;;;;;;7.70;3.38;;;16.60;98.20;;;;;;4953532;29;20110;-72
2021/10/10 10:39:49;;;;;;;5.13;2.58;;;16.80;97.60;;;;;;4954524;28;20028;-72
2021/10/10 10:42:24;;;;;;;6.90;2.97;;;16.70;97.40;;;;;;4942016;29;20074;-73
2021/10/10 10:44:51;;;;;;;4.90;2.40;;;16.60;97.70;;;;;;4954855;29;20126;-73
2021/10/10 10:47:20;;;;;;;3.90;2.40;;;16.50;97.80;;;;;;4954525;29;20480;-73
2021/10/10 10:49:55;;;;;;;3.95;2.05;;;16.50;97.50;;;;;;4953824;29;20035;-73
2021/10/10 10:52:27;;;;;;;2.67;2.10;;;16.50;97.70;;;;;;4954273;29;20085;-72
2021/10/10 10:55:05;;;;;;;4.82;1.95;;;16.50;97.20;;;;;;4954976;29;20544;-76
2021/10/10 10:57:38;;;;;;;3.38;2.20;;;16.50;97.40;;;;;;4941843;29;20043;-73
2021/10/10 11:00:09;;;;;;;2.95;1.95;;;16.60;97.20;;;;;;4954967;29;20476;-73
2021/10/10 11:03:05;;;;;;;3.22;1.90;;;16.70;97.50;;;;;;4937793;29;20393;-72
2021/10/10 11:05:31;;;;;;;2.15;1.92;;;16.60;97.20;;;;;;4954601;29;20039;-73
2021/10/10 11:08:07;;;;;;;8.95;2.40;;;16.70;96.90;;;;;;4954892;29;20419;-74
2021/10/10 11:10:35;;;;;;;3.72;1.95;;;16.50;97.10;;;;;;4954762;29;20058;-73
2021/10/10 11:13:06;;;;;;;5.03;1.90;;;16.50;97.20;;;;;;4939957;29;20086;-72
2021/10/10 11:15:57;;;;;;;4.85;2.45;;;16.40;97.50;;;;;;4937564;29;20031;-72
2021/10/10 11:18:26;;;;;;;3.22;1.55;;;16.00;97.50;;;;;;4935523;29;20043;-72
2021/10/10 11:21:02;;;;;;;7.47;1.80;;;16.20;97.90;;;;;;4954461;29;20177;-72
2021/10/10 11:23:28;;;;;;;2.88;1.70;;;16.40;97.50;;;;;;4954799;29;20058;-72
2021/10/10 11:25:56;;;;;;;2.63;1.90;;;16.50;97.10;;;;;;4954565;29;20059;-74
2021/10/10 11:28:44;;;;;;;2.78;1.88;;;16.20;97.10;;;;;;4954609;29;20036;-73
2021/10/10 11:31:13;;;;;;;1.77;1.50;;;16.10;97.40;;;;;;4937086;29;20377;-73
2021/10/10 11:33:41;;;;;;;2.85;2.03;;;16.50;97.40;;;;;;4941387;29;20377;-76
2021/10/10 11:36:07;;;;;;;4.97;1.92;;;16.80;97.20;;;;;;4953513;29;20027;-78
2021/10/10 11:38:55;;;;;;;1.98;1.77;;;16.90;97.10;;;;;;4953365;28;20503;-71
2021/10/10 11:41:24;;;;;;;3.33;1.70;;;16.80;96.80;;;;;;4954634;29;20488;-72
2021/10/10 11:44:09;;;;;;;3.15;2.28;;;16.70;96.90;;;;;;4937148;29;20027;-73
2021/10/10 11:46:46;;;;;;;2.80;2.08;;;16.50;97.20;;;;;;4954571;29;20480;-73
2021/10/10 11:49:37;;;;;;;4.55;2.10;;;16.40;97.30;;;;;;4937976;29;20480;-73
2021/10/10 11:52:13;;;;;;;7.95;2.22;;;16.40;97.40;;;;;;4953884;28;20058;-72
2021/10/10 11:54:40;;;;;;;2.42;2.20;;;16.10;97.70;;;;;;4958095;29;20120;-72
2021/10/10 11:57:08;;;;;;;7.88;2.60;;;15.90;97.80;;;;;;4958002;29;20035;-73
2021/10/10 11:59:35;;;;;;;3.65;2.30;;;15.80;98.20;;;;;;4958380;29;20039;-72
2021/10/10 12:02:02;;;;;;;4.05;2.30;;;15.70;98.20;;;;;;4957958;29;20563;-72
2021/10/10 12:04:27;;;;;;;3.53;2.20;;;15.60;98.50;;;;;;4957827;29;20086;-72
2021/10/10 12:06:53;;;;;;;3.42;2.33;;;15.30;98.50;;;;;;4957889;29;20122;-72
2021/10/10 12:09:19;;;;;;;5.25;2.50;;;15.00;98.90;;;;;;4957589;29;20023;-73
2021/10/10 12:12:14;;;;;;;3.63;2.35;;;15.00;99.20;;;;;;4957430;29;20030;-73
2021/10/10 12:14:41;;;;;;;6.88;2.40;;;14.90;98.70;;;;;;4940519;29;20079;-72
2021/10/10 12:17:07;;;;;;;3.05;2.40;;;14.80;99.20;;;;;;4957816;29;20480;-72
2021/10/10 12:19:44;;;;;;;5.65;2.63;;;14.70;99.60;;;;;;4957562;29;20039;-72
2021/10/10 12:22:16;;;;;;;3.58;2.33;;;14.60;99.70;;;;;;4957527;29;20392;-73
2021/10/10 12:24:46;;;;;;;2.60;2.17;;;14.40;99.70;;;;;;4957666;29;20039;-71
2021/10/10 12:27:22;;;;;;;7.05;2.38;;;14.10;99.90;;;;;;4957706;29;20023;-72
2021/10/10 12:29:48;;;;;;;6.03;2.95;;;14.20;99.90;;;;;;4957595;29;20027;-72
2021/10/10 12:32:26;;;;;;;3.40;2.70;;;14.10;99.90;;;;;;4957803;29;20036;-71
2021/10/10 12:35:15;;;;;;;4.38;2.40;;;14.00;99.90;;;;;;4957537;29;20126;-72
2021/10/10 12:37:51;;;;;;;2.67;2.15;;;14.10;99.90;;;;;;4947048;29;20027;-72
2021/10/10 12:40:35;;;;;;;2.13;1.73;;;13.90;99.90;;;;;;4957084;29;20035;-71
2021/10/10 12:43:01;;;;;;;4.22;2.30;;;13.90;99.90;;;;;;4957268;29;20134;-73
2021/10/10 12:45:33;;;;;;;2.47;2.03;;;13.90;99.90;;;;;;4957028;29;20035;-71
2021/10/10 12:48:12;;;;;;;3.58;2.40;;;13.80;99.90;;;;;;4957150;29;20035;-72
2021/10/10 12:50:49;;;;;;;6.60;1.92;;;13.80;99.90;;;;;;4956780;29;20436;-72